createdAt,value
2018-01-31T01:52:20.408Z,94577.34
2018-01-31T01:53:18.571Z,94383.30
2018-01-31T01:55:45.878Z,94383.23
2018-01-31T01:58:12.487Z,94382.05
2018-01-31T02:00:39.170Z,94368.84
2018-01-31T02:03:06.534Z,94368.56
2018-01-31T02:05:33.194Z,94365.38
2018-01-31T02:07:59.814Z,94360.53
2018-01-31T02:10:27.135Z,94357.31
2018-01-31T02:12:53.718Z,94347.70
2018-01-31T02:15:20.333Z,94339.53
2018-01-31T02:17:46.942Z,94334.98
2018-01-31T02:20:13.599Z,94327.12
2018-01-31T02:22:40.261Z,94329.85
2018-01-31T02:25:06.902Z,94325.34
2018-01-31T02:27:34.233Z,94318.41
2018-01-31T02:30:00.831Z,94313.83
2018-01-31T02:32:27.443Z,94305.52
2018-01-31T02:34:54.078Z,94303.64
2018-01-31T02:37:20.683Z,94302.30
2018-01-31T02:39:57.126Z,94301.38
2018-01-31T02:42:23.730Z,94298.75
2018-01-31T02:44:50.444Z,94294.23
2018-01-31T02:47:17.017Z,94292.63
2018-01-31T02:49:43.645Z,94290.41
2018-01-31T02:52:10.246Z,94277.80
2018-01-31T02:54:36.843Z,94282.00
2018-01-31T02:57:03.471Z,94271.70
2018-01-31T02:59:30.072Z,94269.04
2018-01-31T03:01:57.405Z,94260.33
2018-01-31T03:04:24.795Z,94265.08
2018-01-31T03:06:51.471Z,94264.28
2018-01-31T03:09:18.088Z,94260.33
2018-01-31T03:11:44.683Z,94263.20
2018-01-31T03:14:12.029Z,94259.71
2018-01-31T03:16:38.694Z,94259.53
2018-01-31T03:19:05.335Z,94256.63
2018-01-31T03:21:31.973Z,94261.24
2018-01-31T03:23:58.578Z,94253.21
2018-01-31T03:26:25.920Z,94252.28
2018-01-31T03:28:53.282Z,94253.75
2018-01-31T03:31:19.916Z,94254.23
2018-01-31T03:33:47.262Z,94254.81
2018-01-31T03:36:13.906Z,94247.81
2018-01-31T03:38:41.265Z,94243.98
2018-01-31T03:41:07.878Z,94241.55
2018-01-31T03:43:34.597Z,94235.99
2018-01-31T03:46:01.182Z,94233.84
2018-01-31T03:48:28.523Z,94238.22
2018-01-31T03:50:55.948Z,94226.25
2018-01-31T03:53:22.545Z,94230.48
2018-01-31T03:55:49.184Z,94229.29
2018-01-31T03:58:16.494Z,94230.04
2018-01-31T04:00:43.180Z,94217.36
2018-01-31T04:03:10.538Z,94220.68
2018-01-31T04:05:37.896Z,94217.88
2018-01-31T04:08:04.563Z,94220.10
2018-01-31T04:10:31.373Z,94211.59
2018-01-31T04:12:58.780Z,94209.37
2018-01-31T04:15:25.365Z,94206.61
2018-01-31T04:17:52.704Z,94204.14
2018-01-31T04:20:20.078Z,94192.42
2018-01-31T04:22:47.421Z,94193.69
2018-01-31T04:25:14.016Z,94193.90
2018-01-31T04:27:40.611Z,94185.02
2018-01-31T04:30:07.222Z,94181.98
2018-01-31T04:32:34.658Z,94181.59
2018-01-31T04:35:01.274Z,94174.62
2018-01-31T04:37:27.899Z,94179.55
2018-01-31T04:39:54.510Z,94175.24
2018-01-31T04:42:21.106Z,94172.92
2018-01-31T04:44:47.718Z,94170.59
2018-01-31T04:47:14.342Z,94166.18
2018-01-31T04:49:40.966Z,94158.76
2018-01-31T04:52:07.537Z,94176.73
2018-01-31T04:54:34.891Z,94156.91
2018-01-31T04:57:01.522Z,94164.11
2018-01-31T04:59:28.114Z,94161.02
2018-01-31T05:01:55.461Z,94153.37
2018-01-31T05:04:22.852Z,94146.23
2018-01-31T05:06:49.514Z,94150.29
2018-01-31T05:09:16.145Z,94148.65
2018-01-31T05:11:42.737Z,94139.48
2018-01-31T05:14:09.385Z,94135.47
2018-01-31T05:16:36.068Z,94134.34
2018-01-31T05:19:02.694Z,94132.52
2018-01-31T05:21:29.348Z,94135.41
2018-01-31T05:23:55.954Z,94130.64
2018-01-31T05:26:22.569Z,94132.83
2018-01-31T05:28:49.192Z,94127.35
2018-01-31T05:31:16.676Z,94131.27
2018-01-31T05:33:43.470Z,94128.05
2018-01-31T05:36:10.582Z,94122.66
2018-01-31T05:38:37.540Z,94117.84
2018-01-31T05:41:04.174Z,94116.45
2018-01-31T05:43:31.471Z,94109.40
2018-01-31T05:45:58.154Z,94102.49
2018-01-31T05:48:24.752Z,94096.63
2018-01-31T05:50:52.125Z,94092.15
2018-01-31T05:53:18.706Z,94091.55
2018-01-31T05:55:45.266Z,94088.83
2018-01-31T05:58:11.877Z,94085.31
2018-01-31T06:00:38.483Z,94081.76
2018-01-31T06:03:05.086Z,94072.75
2018-01-31T06:05:31.879Z,94074.92
2018-01-31T06:07:58.445Z,94065.75
2018-01-31T06:10:25.093Z,94068.97
2018-01-31T06:12:52.517Z,94076.58
2018-01-31T06:15:19.147Z,94063.66
2018-01-31T06:17:45.802Z,94061.66
2018-01-31T06:20:12.383Z,94055.32
2018-01-31T06:22:39.035Z,94055.86
2018-01-31T06:25:05.655Z,94052.14
2018-01-31T06:27:33.058Z,94046.56
2018-01-31T06:29:59.654Z,94041.67
2018-01-31T06:32:26.245Z,94043.59
2018-01-31T06:34:53.059Z,94040.59
2018-01-31T06:37:19.691Z,94035.34
2018-01-31T06:39:46.264Z,94030.63
2018-01-31T06:42:13.641Z,94036.15
2018-01-31T06:44:41.037Z,94034.43
2018-01-31T06:47:07.687Z,94026.10
2018-01-31T06:49:34.468Z,94029.98
2018-01-31T06:52:01.808Z,94030.12
2018-01-31T06:54:29.218Z,94022.05
2018-01-31T06:56:55.835Z,94033.92
2018-01-31T06:59:22.461Z,94031.32
2018-01-31T07:01:49.889Z,94016.64
2018-01-31T07:04:16.462Z,94012.39
2018-01-31T07:06:43.067Z,94013.94
2018-01-31T07:09:09.669Z,94021.00
2018-01-31T07:11:36.303Z,94018.60
2018-01-31T07:14:02.903Z,94015.23
2018-01-31T07:16:30.263Z,94020.82
2018-01-31T07:18:57.632Z,94022.45
2018-01-31T07:21:24.298Z,94029.09
2018-01-31T07:23:50.939Z,94028.16
2018-01-31T07:26:17.526Z,94020.61
2018-01-31T07:28:44.118Z,94025.96
2018-01-31T07:31:10.721Z,94022.98
2018-01-31T07:33:37.274Z,94019.63
2018-01-31T07:36:03.905Z,94020.94
2018-01-31T07:38:30.518Z,93999.03
2018-01-31T07:40:57.122Z,94003.48
2018-01-31T07:43:23.744Z,94000.38
2018-01-31T07:45:50.346Z,93987.29
2018-01-31T07:48:17.547Z,93983.00
2018-01-31T07:50:44.136Z,93980.33
2018-01-31T07:53:10.723Z,93982.78
2018-01-31T07:55:37.357Z,93975.97
2018-01-31T07:58:03.958Z,93982.11
2018-01-31T08:00:30.600Z,93975.33
2018-01-31T08:02:57.244Z,93965.70
2018-01-31T08:05:23.915Z,93961.99
2018-01-31T08:07:51.302Z,93959.14
2018-01-31T08:10:17.919Z,93950.55
2018-01-31T08:12:45.243Z,93949.70
2018-01-31T08:15:11.854Z,93944.80
2018-01-31T08:17:38.434Z,93947.97
2018-01-31T08:20:05.014Z,93951.22
2018-01-31T08:22:31.723Z,93948.36
2018-01-31T08:24:58.433Z,93953.33
2018-01-31T08:27:25.070Z,93952.11
2018-01-31T08:29:51.674Z,93950.97
2018-01-31T08:32:18.254Z,93944.92
2018-01-31T08:34:44.858Z,93937.67
2018-01-31T08:37:11.471Z,93926.89
2018-01-31T08:39:38.092Z,93917.48
2018-01-31T08:42:05.413Z,93917.42
2018-01-31T08:44:32.027Z,93916.04
2018-01-31T08:46:58.646Z,93909.51
2018-01-31T08:49:25.393Z,93903.95
2018-01-31T08:51:52.036Z,93903.55
2018-01-31T08:54:19.401Z,93890.20
2018-01-31T08:56:45.990Z,93879.00
2018-01-31T08:59:13.339Z,93867.74
2018-01-31T09:01:40.074Z,93865.53
2018-01-31T09:04:06.676Z,93862.31
2018-01-31T09:06:33.433Z,93859.02
2018-01-31T09:09:00.779Z,93852.77
2018-01-31T09:11:27.399Z,93832.83
2018-01-31T09:13:54.075Z,93832.78
2018-01-31T09:16:20.637Z,93835.25
2018-01-31T09:18:47.262Z,93830.45
2018-01-31T09:21:13.871Z,93820.63
2018-01-31T09:23:40.465Z,93811.91
2018-01-31T09:26:07.078Z,93810.77
2018-01-31T09:28:33.695Z,93802.91
2018-01-31T09:31:00.283Z,93794.61
2018-01-31T09:33:26.902Z,93782.38
2018-01-31T09:35:53.494Z,93782.59
2018-01-31T09:38:20.194Z,93783.72
2018-01-31T09:40:46.798Z,93776.91
2018-01-31T09:43:13.495Z,93784.00
2018-01-31T09:45:40.081Z,93773.41
2018-01-31T09:48:06.727Z,93771.69
2018-01-31T09:50:33.398Z,93775.36
2018-01-31T09:53:02.451Z,93761.45
2018-01-31T09:55:26.608Z,93771.23
2018-01-31T09:57:53.974Z,93763.42
2018-01-31T10:00:21.088Z,93755.67
2018-01-31T10:02:47.711Z,93751.62
2018-01-31T10:05:14.330Z,93757.88
2018-01-31T10:07:40.986Z,93756.78
2018-01-31T10:10:07.597Z,93752.61
2018-01-31T10:12:34.323Z,93746.45
2018-01-31T10:15:00.886Z,93732.14
2018-01-31T10:17:27.490Z,93734.70
2018-01-31T10:19:54.854Z,93729.94
2018-01-31T10:22:21.601Z,93711.44
2018-01-31T10:24:48.236Z,93716.28
2018-01-31T10:27:14.819Z,93711.92
2018-01-31T10:29:41.425Z,93723.53
2018-01-31T10:32:08.025Z,93712.81
2018-01-31T10:34:34.628Z,93711.58
2018-01-31T10:37:01.234Z,93701.76
2018-01-31T10:39:27.818Z,93707.86
2018-01-31T10:41:55.181Z,93703.70
2018-01-31T10:44:21.826Z,93695.04
2018-01-31T10:46:48.469Z,93696.17
2018-01-31T10:49:15.160Z,93687.40
2018-01-31T10:51:41.754Z,93703.82
2018-01-31T10:59:01.771Z,93687.80
2018-01-31T11:01:28.355Z,93678.25
2018-01-31T11:03:54.957Z,93673.91
2018-01-31T11:06:21.548Z,93661.81
2018-01-31T11:08:48.191Z,93652.52
2018-01-31T11:11:14.777Z,93642.19
2018-01-31T11:13:41.395Z,93632.80
2018-01-31T11:16:08.002Z,93624.86
2018-01-31T11:18:35.327Z,93622.64
2018-01-31T11:21:01.946Z,93610.73
2018-01-31T11:23:28.509Z,93606.81
2018-01-31T11:25:55.110Z,93607.88
2018-01-31T11:28:21.690Z,93607.72
2018-01-31T11:30:48.338Z,93590.65
2018-01-31T11:33:15.043Z,93589.56
2018-01-31T11:35:42.415Z,93592.30
2018-01-31T11:38:08.994Z,93575.20
2018-01-31T11:40:35.619Z,93568.45
2018-01-31T11:43:02.355Z,93566.95
2018-01-31T11:45:28.918Z,93565.55
2018-01-31T11:47:55.533Z,93563.74
2018-01-31T11:50:22.189Z,93559.20
2018-01-31T11:52:48.797Z,93557.42
2018-01-31T11:55:15.438Z,93557.20
2018-01-31T11:57:42.116Z,93546.00
2018-01-31T12:00:08.795Z,93529.66
2018-01-31T12:02:35.306Z,93526.41
2018-01-31T12:05:02.684Z,93520.03
2018-01-31T12:07:29.257Z,93533.23
2018-01-31T12:09:55.808Z,93513.48
2018-01-31T12:12:40.766Z,93505.97
2018-01-31T12:15:22.503Z,93493.05
2018-01-31T12:17:49.170Z,93480.55
2018-01-31T12:20:34.034Z,93480.97
2018-01-31T12:23:19.069Z,93479.63
2018-01-31T12:39:21.358Z,93425.91
2018-01-31T12:41:47.554Z,93415.57
2018-01-31T12:44:13.782Z,93407.23
2018-01-31T12:46:58.781Z,93399.29
2018-01-31T12:49:44.070Z,93390.78
2018-01-31T12:52:39.599Z,93384.23
2018-01-31T12:55:24.639Z,93396.27
2018-01-31T12:58:09.736Z,93388.44
2018-01-31T13:14:55.039Z,93368.11
2018-01-31T13:17:22.422Z,93353.45
2018-01-31T13:20:07.392Z,93349.44
2018-01-31T13:23:02.021Z,93347.78
2018-01-31T13:25:46.862Z,93342.36
2018-01-31T13:28:38.555Z,93348.19
2018-01-31T13:31:24.144Z,93340.44
2018-01-31T13:34:09.134Z,93352.45
2018-01-31T13:50:27.964Z,93335.19
2018-01-31T13:53:12.997Z,93328.71
2018-01-31T13:55:52.635Z,93319.65
2018-01-31T13:58:37.483Z,93319.06
2018-01-31T14:01:22.312Z,93308.01
2018-01-31T14:04:01.218Z,93307.83
2018-01-31T14:06:46.574Z,93301.97
2018-01-31T14:09:31.343Z,93284.88
2018-01-31T14:12:16.378Z,93278.69
2018-01-31T14:18:07.128Z,93251.72
2018-01-31T14:20:52.059Z,93246.59
2018-01-31T14:23:36.994Z,93245.35
2018-01-31T14:26:22.274Z,93245.91
2018-01-31T14:29:07.912Z,93232.19
2018-01-31T14:31:46.527Z,93227.42
2018-01-31T14:47:43.839Z,93200.64
2018-01-31T14:50:10.015Z,93189.59
2018-01-31T14:52:36.210Z,93176.33
2018-01-31T14:55:02.373Z,93180.23
2018-01-31T14:57:28.556Z,93170.95
2018-01-31T14:59:54.738Z,93159.62
2018-01-31T15:02:20.886Z,93164.30
2018-01-31T15:04:47.840Z,93159.83
2018-01-31T15:07:14.030Z,93139.39
2018-01-31T15:09:40.189Z,93121.41
2018-01-31T15:12:07.094Z,93112.61
2018-01-31T15:14:33.319Z,93111.26
2018-01-31T15:16:59.505Z,93098.58
2018-01-31T15:19:25.708Z,93102.75
2018-01-31T15:21:52.639Z,93085.66
2018-01-31T15:24:18.833Z,93078.62
2018-01-31T15:26:45.052Z,93079.62
2018-01-31T15:29:12.229Z,93080.31
2018-01-31T15:31:38.372Z,93080.81
2018-01-31T15:34:05.334Z,93083.92
2018-01-31T15:36:32.302Z,93079.58
2018-01-31T15:38:58.489Z,93078.77
2018-01-31T15:41:25.431Z,93081.63
2018-01-31T15:43:52.716Z,93084.19
2018-01-31T15:46:18.946Z,93075.95
2018-01-31T15:48:45.171Z,93072.87
2018-01-31T15:51:11.367Z,93067.06
2018-01-31T15:53:38.294Z,93050.77
2018-01-31T15:56:04.486Z,93047.36
2018-01-31T15:58:30.720Z,93039.12
2018-01-31T16:00:56.942Z,93024.80
2018-01-31T16:03:23.152Z,93019.23
2018-01-31T16:05:49.319Z,93007.13
2018-01-31T16:08:15.739Z,92990.04
2018-01-31T16:10:41.937Z,92986.75
2018-01-31T16:13:08.112Z,92982.77
2018-01-31T16:15:34.332Z,92994.20
2018-01-31T16:18:01.605Z,92985.56
2018-01-31T16:20:46.395Z,92987.34
2018-01-31T16:23:13.711Z,92986.94
2018-01-31T16:25:40.332Z,92979.79
2018-01-31T16:28:26.152Z,92974.17
2018-01-31T16:30:52.724Z,92969.45
2018-01-31T16:33:27.335Z,92966.80
2018-01-31T16:35:54.691Z,92967.80
2018-01-31T16:38:21.923Z,92967.83
2018-01-31T16:40:48.437Z,92968.57
2018-01-31T16:43:15.653Z,92957.73
2018-01-31T16:45:42.907Z,92954.72
2018-01-31T16:48:09.459Z,92958.78
2018-01-31T16:50:35.979Z,92957.48
2018-01-31T16:53:02.583Z,92949.88
2018-01-31T16:55:29.081Z,92958.06
2018-01-31T16:57:55.672Z,92955.40
2018-01-31T17:00:22.196Z,92950.73
2018-01-31T17:02:49.451Z,92946.55
2018-01-31T17:05:16.031Z,92944.53
2018-01-31T17:07:42.539Z,92933.38
2018-01-31T17:10:09.074Z,92928.76
2018-01-31T17:12:35.595Z,92916.53
2018-01-31T17:15:03.161Z,92918.23
2018-01-31T17:17:29.795Z,92918.52
2018-01-31T17:19:56.476Z,92923.19
2018-01-31T17:22:23.225Z,92921.88
2018-01-31T17:24:49.867Z,92914.44
2018-01-31T17:27:16.553Z,92914.97
2018-01-31T17:29:43.261Z,92914.03
2018-01-31T17:32:09.895Z,92910.61
2018-01-31T17:34:37.259Z,92905.22
2018-01-31T17:37:04.687Z,92914.16
2018-01-31T17:39:31.325Z,92908.85
2018-01-31T17:41:58.010Z,92909.08
2018-01-31T17:44:25.340Z,92906.78
2018-01-31T17:46:52.703Z,92914.60
2018-01-31T17:49:20.074Z,92923.86
2018-01-31T17:51:46.704Z,92924.94
2018-01-31T17:54:14.294Z,92927.14
2018-01-31T17:56:41.076Z,92925.16
2018-01-31T17:59:07.723Z,92917.83
2018-01-31T18:01:34.428Z,92919.77
2018-01-31T18:04:01.030Z,92926.59
2018-01-31T18:06:27.749Z,92917.19
2018-01-31T18:08:54.387Z,92916.60
2018-01-31T18:11:21.762Z,92914.77
2018-01-31T18:13:48.419Z,92921.84
2018-01-31T18:16:15.130Z,92921.03
2018-01-31T18:18:42.567Z,92913.21
2018-01-31T18:21:10.043Z,92922.92
2018-01-31T18:23:36.736Z,92934.41
2018-01-31T18:26:03.434Z,92930.74
2018-01-31T18:28:30.076Z,92941.83
2018-01-31T18:30:56.681Z,92928.98
2018-01-31T18:33:24.040Z,92922.99
2018-01-31T18:35:51.477Z,92920.35
2018-01-31T18:38:18.173Z,92922.02
2018-01-31T18:40:44.803Z,92934.69
2018-01-31T18:43:11.399Z,92922.64
2018-01-31T18:45:38.054Z,92915.66
2018-01-31T18:48:04.769Z,92922.52
2018-01-31T18:50:32.168Z,92925.76
2018-01-31T18:52:58.806Z,92906.61
2018-01-31T18:55:25.584Z,92914.75
2018-01-31T18:57:52.315Z,92924.54
2018-01-31T19:00:18.942Z,92909.00
2018-01-31T19:02:45.568Z,92910.52
2018-01-31T19:05:12.268Z,92916.82
2018-01-31T19:07:39.624Z,92900.05
2018-01-31T19:10:06.282Z,92904.45
2018-01-31T19:12:33.661Z,92889.03
2018-01-31T19:15:00.302Z,92889.71
2018-01-31T19:17:27.042Z,92877.58
2018-01-31T19:19:53.646Z,92877.85
2018-01-31T19:22:20.318Z,92873.54
2018-01-31T19:24:46.990Z,92873.76
2018-01-31T19:27:13.638Z,92874.00
2018-01-31T19:29:40.961Z,92879.08
2018-01-31T19:32:07.605Z,92886.58
2018-01-31T19:34:34.220Z,92877.47
2018-01-31T19:37:00.977Z,92877.72
2018-01-31T19:39:27.603Z,92879.88
2018-01-31T19:41:54.305Z,92878.67
2018-01-31T19:44:21.095Z,92882.77
2018-01-31T19:46:47.678Z,92877.29
2018-01-31T19:49:14.495Z,92880.75
2018-01-31T19:51:41.070Z,92884.73
2018-01-31T19:54:07.710Z,92879.12
2018-01-31T19:56:34.362Z,92874.59
2018-01-31T19:59:04.540Z,92871.48
2018-01-31T20:01:31.240Z,92864.96
2018-01-31T20:03:57.854Z,92864.78
2018-01-31T20:06:24.500Z,92854.14
2018-01-31T20:08:51.132Z,92845.66
2018-01-31T20:11:17.925Z,92844.90
2018-01-31T20:13:45.273Z,92835.69
2018-01-31T20:16:11.958Z,92844.17
2018-01-31T20:18:38.629Z,92840.78
2018-01-31T20:21:05.224Z,92836.08
2018-01-31T20:23:31.856Z,92831.69
2018-01-31T20:25:58.525Z,92831.28
2018-01-31T20:28:25.197Z,92829.27
2018-01-31T20:30:52.630Z,92823.83
2018-01-31T20:33:19.284Z,92813.48
2018-01-31T20:35:46.658Z,92815.84
2018-01-31T20:38:13.291Z,92808.30
2018-01-31T20:40:40.839Z,92808.62
2018-01-31T20:43:08.240Z,92800.56
2018-01-31T20:45:34.942Z,92793.58
2018-01-31T20:48:02.308Z,92794.34
2018-01-31T20:50:28.948Z,92777.41
2018-01-31T20:52:55.617Z,92779.48
2018-01-31T20:55:22.255Z,92775.70
2018-01-31T20:57:48.891Z,92768.05
2018-01-31T21:00:15.562Z,92757.28
2018-01-31T21:02:42.155Z,92767.63
2018-01-31T21:05:08.814Z,92756.91
2018-01-31T21:07:35.455Z,92757.62
2018-01-31T21:10:02.860Z,92752.95
2018-01-31T21:12:29.525Z,92757.80
2018-01-31T21:14:56.222Z,92756.99
2018-01-31T21:17:22.858Z,92752.22
2018-01-31T21:19:50.238Z,92745.31
2018-01-31T21:22:16.882Z,92741.52
2018-01-31T21:24:45.022Z,92742.32
2018-01-31T21:27:12.492Z,92739.48
2018-01-31T21:29:39.105Z,92729.87
2018-01-31T21:32:05.784Z,92732.59
2018-01-31T21:34:32.446Z,92716.77
2018-01-31T21:36:59.067Z,92725.16
2018-01-31T21:39:25.740Z,92723.23
2018-01-31T21:41:52.338Z,92722.43
2018-01-31T21:44:19.695Z,92713.53
2018-01-31T21:46:46.291Z,92714.33
2018-01-31T21:49:12.869Z,92704.33
2018-01-31T21:51:39.518Z,92702.38
2018-01-31T21:54:06.169Z,92695.67
2018-01-31T21:56:32.842Z,92688.73
2018-01-31T21:58:59.471Z,92700.14
2018-01-31T22:01:26.072Z,92694.77
2018-01-31T22:03:52.768Z,92693.14
2018-01-31T22:06:19.380Z,92692.01
2018-01-31T22:08:45.975Z,92689.67
2018-01-31T22:11:12.607Z,92679.64
2018-01-31T22:13:39.218Z,92676.57
2018-01-31T22:16:05.858Z,92665.50
2018-01-31T22:18:32.438Z,92657.97
2018-01-31T22:20:59.041Z,92651.38
2018-01-31T22:23:25.718Z,92656.76
2018-01-31T22:25:52.315Z,92641.93
2018-01-31T22:28:19.655Z,92645.43
2018-01-31T22:30:46.319Z,92639.63
2018-01-31T22:33:13.664Z,92639.70
2018-01-31T22:35:40.279Z,92633.02
2018-01-31T22:38:06.928Z,92633.83
2018-01-31T22:40:33.509Z,92630.83
2018-01-31T22:43:00.120Z,92633.66
2018-01-31T22:45:26.772Z,92633.93
2018-01-31T22:47:53.391Z,92634.56
2018-01-31T22:50:20.775Z,92637.14
2018-01-31T22:52:47.401Z,92627.81
2018-01-31T22:55:14.913Z,92631.98
2018-01-31T22:57:41.548Z,92619.27
2018-01-31T23:00:08.180Z,92624.41
2018-01-31T23:02:35.574Z,92625.89
2018-01-31T23:05:02.206Z,92625.05
2018-01-31T23:07:28.937Z,92620.44
2018-01-31T23:09:55.575Z,92616.05
2018-01-31T23:12:23.663Z,92618.77
2018-01-31T23:14:52.392Z,92616.25
2018-01-31T23:17:25.106Z,92611.96
2018-01-31T23:19:51.751Z,92618.00
2018-01-31T23:22:19.099Z,92599.77
2018-01-31T23:24:46.486Z,92611.02
2018-01-31T23:27:13.101Z,92609.98
2018-01-31T23:29:39.787Z,92611.64
2018-01-31T23:32:06.434Z,92612.84
2018-01-31T23:34:33.190Z,92606.10
2018-01-31T23:36:59.778Z,92605.42
2018-01-31T23:39:26.388Z,92600.18
2018-01-31T23:41:53.747Z,92594.13
2018-01-31T23:44:21.077Z,92592.33
2018-01-31T23:46:47.781Z,92593.28
2018-01-31T23:49:14.390Z,92598.14
2018-01-31T23:51:40.970Z,92593.02
2018-01-31T23:54:07.565Z,92594.17
2018-01-31T23:56:34.928Z,92591.27
2018-01-31T23:59:01.538Z,92582.62
